Portada
METAR-TAF:

METAR-TAF

Aeroports :

Windham Airport

Willimantic, Connecticut, Estats Units d'Amèrica

latitud: 41-44-31N, longitud: 072-11-01W, altitud: 75 m

Observació

L'informe es va fer fa 16 minuts, a les 22:52 UTC
Vent 4 kt del Est
Temperatura 7°C
Humitat 87%
Pressió 1006 hPa
Visibilitat: 6.4 km
Cel ennuvolat a una alçada de 1000 ft
Cel ennuvolat a una alçada de 1800 ft
Cel cobert a una alçada de 2700 ft
pluja, boirina

METAR: KIJD 152252Z AUTO 08004KT 4SM RA BR BKN010 BKN018 OVC027 07/05 A2970 RMK AO2 SLP059 P0006 T00670050

Hora: 19:08 (23:08 UTC)


TAF: manca

Observacions i pronòstics meteorològics de més de 4000 aeroports (METAR i TAF).

Les estacions disponibles són els punts grocs i vermells al mapa.

Posi el ratolí al punt desitjat per veure el nom de l'estació.

Feu clic per veure les observacions i els pronòstics meteorològics.

Per canviar el mapa: feu clic els botons verds amb una creu de color negre per apropar; al botó verd amb un guió per allunyar la imatge; o en les fletxes verdes per a mapes adjacents.


METAR-TAF: